createdAt,value
2023-09-23T00:00:10.574Z,14.17
2023-09-23T00:01:10.542Z,14.17
2023-09-23T00:02:10.629Z,14.17
2023-09-23T00:03:10.622Z,14.19
2023-09-23T00:04:10.672Z,14.17
2023-09-23T00:05:10.696Z,14.16
2023-09-23T00:06:10.478Z,14.19
2023-09-23T00:07:10.468Z,14.19
2023-09-23T00:08:10.479Z,14.17
2023-09-23T00:09:10.441Z,14.17
2023-09-23T00:10:10.434Z,14.17
2023-09-23T00:11:10.461Z,14.17
2023-09-23T00:12:10.407Z,14.20
2023-09-23T00:13:10.429Z,14.17
2023-09-23T00:14:10.422Z,14.13
2023-09-23T00:15:10.382Z,14.17
2023-09-23T00:16:10.403Z,14.13
2023-09-23T00:17:10.387Z,14.12
2023-09-23T00:18:10.406Z,14.12
2023-09-23T00:19:10.364Z,14.12
2023-09-23T00:20:10.380Z,14.12
2023-09-23T00:21:10.310Z,14.09
2023-09-23T00:22:10.298Z,14.11
2023-09-23T00:23:10.345Z,14.09
2023-09-23T00:24:10.281Z,14.08
2023-09-23T00:25:10.271Z,14.09
2023-09-23T00:26:10.279Z,14.08
2023-09-23T00:27:10.250Z,14.09
2023-09-23T00:28:10.232Z,14.08
2023-09-23T00:29:10.322Z,14.08
2023-09-23T00:30:10.212Z,14.09
2023-09-23T00:31:10.275Z,14.09
2023-09-23T00:32:10.226Z,14.09
2023-09-23T00:33:10.186Z,14.08
2023-09-23T00:34:10.178Z,14.06
2023-09-23T00:35:10.200Z,14.08
2023-09-23T00:36:10.169Z,14.05
2023-09-23T00:37:10.148Z,14.04
2023-09-23T00:38:10.177Z,14.02
2023-09-23T00:39:10.121Z,14.01
2023-09-23T00:40:10.102Z,13.99
2023-09-23T00:41:10.254Z,13.98
2023-09-23T00:42:10.086Z,13.96
2023-09-23T00:43:10.073Z,13.93
2023-09-23T00:44:10.081Z,13.91
2023-09-23T00:45:10.044Z,13.90
2023-09-23T00:46:10.098Z,13.90
2023-09-23T00:47:10.055Z,13.88
2023-09-23T00:48:10.058Z,13.87
2023-09-23T00:49:10.030Z,13.88
2023-09-23T00:50:10.056Z,13.88
2023-09-23T00:51:09.998Z,13.87
2023-09-23T00:52:09.980Z,13.87
2023-09-23T00:53:10.024Z,13.86
2023-09-23T00:54:09.976Z,13.84
2023-09-23T00:55:09.962Z,13.83
2023-09-23T00:56:10.199Z,13.81
2023-09-23T00:57:09.939Z,13.80
2023-09-23T00:58:09.909Z,13.79
2023-09-23T00:59:09.955Z,13.79
2023-09-23T01:00:09.892Z,13.76
2023-09-23T01:01:10.047Z,13.73
2023-09-23T01:02:09.953Z,13.72
2023-09-23T01:03:10.015Z,13.69
2023-09-23T01:04:09.996Z,13.69
2023-09-23T01:05:09.873Z,13.66
2023-09-23T01:06:09.861Z,13.65
2023-09-23T01:07:09.833Z,13.62
2023-09-23T01:08:09.832Z,13.62
2023-09-23T01:09:09.814Z,13.61
2023-09-23T01:10:09.809Z,13.61
2023-09-23T01:11:09.819Z,13.55
2023-09-23T01:12:09.752Z,13.55
2023-09-23T01:13:11.073Z,13.55
2023-09-23T01:14:09.797Z,13.53
2023-09-23T01:15:09.736Z,13.51
2023-09-23T01:16:09.772Z,13.48
2023-09-23T01:17:09.754Z,13.46
2023-09-23T01:18:09.780Z,13.47
2023-09-23T01:19:09.698Z,13.47
2023-09-23T01:20:09.725Z,13.46
2023-09-23T01:21:09.702Z,13.46
2023-09-23T01:22:09.693Z,13.44
2023-09-23T01:23:09.700Z,13.44
2023-09-23T01:24:09.676Z,13.44
2023-09-23T01:25:09.654Z,13.44
2023-09-23T01:26:09.694Z,13.44
2023-09-23T01:27:09.622Z,13.44
2023-09-23T01:28:09.621Z,13.43
2023-09-23T01:29:09.631Z,13.43
2023-09-23T01:30:09.628Z,13.38
2023-09-23T01:31:09.644Z,13.38
2023-09-23T01:32:09.593Z,13.38
2023-09-23T01:33:09.643Z,13.35
2023-09-23T01:34:09.547Z,13.32
2023-09-23T01:35:09.572Z,13.31
2023-09-23T01:36:09.546Z,13.31
2023-09-23T01:37:09.513Z,13.29
2023-09-23T01:38:09.552Z,13.29
2023-09-23T01:39:09.481Z,13.31
2023-09-23T01:40:09.473Z,13.29
2023-09-23T01:41:09.520Z,13.29
2023-09-23T01:42:09.451Z,13.27
2023-09-23T01:43:09.436Z,13.24
2023-09-23T01:44:09.453Z,13.22
2023-09-23T01:45:09.417Z,13.24
2023-09-23T01:46:09.433Z,13.24
2023-09-23T01:47:09.519Z,13.21
2023-09-23T01:48:09.484Z,13.19
2023-09-23T01:49:09.382Z,13.19
2023-09-23T01:50:09.435Z,13.19
2023-09-23T01:51:09.386Z,13.17
2023-09-23T01:52:09.359Z,13.17
2023-09-23T01:53:09.412Z,13.14
2023-09-23T01:54:09.341Z,13.13
2023-09-23T01:55:09.435Z,13.12
2023-09-23T01:56:09.336Z,13.10
2023-09-23T01:57:09.306Z,13.10
2023-09-23T01:58:09.300Z,13.09
2023-09-23T01:59:09.305Z,13.07
2023-09-23T02:00:09.277Z,13.07
2023-09-23T02:01:09.318Z,13.04
2023-09-23T02:02:09.338Z,13.03
2023-09-23T02:03:09.414Z,12.99
2023-09-23T02:04:09.234Z,12.99
2023-09-23T02:05:09.313Z,13.01
2023-09-23T02:06:09.227Z,12.99
2023-09-23T02:07:09.197Z,13.01
2023-09-23T02:08:09.286Z,12.99
2023-09-23T02:09:09.194Z,12.99
2023-09-23T02:10:09.167Z,12.98
2023-09-23T02:11:09.226Z,12.98
2023-09-23T02:12:09.145Z,12.96
2023-09-23T02:13:09.142Z,12.95
2023-09-23T02:14:09.193Z,12.95
2023-09-23T02:15:09.116Z,12.95
2023-09-23T02:16:09.126Z,12.94
2023-09-23T02:17:09.127Z,12.92
2023-09-23T02:18:09.114Z,12.95
2023-09-23T02:19:09.061Z,12.92
2023-09-23T02:20:09.129Z,12.92
2023-09-23T02:21:09.049Z,12.92
2023-09-23T02:22:09.032Z,12.92
2023-09-23T02:23:09.037Z,12.92
2023-09-23T02:24:09.003Z,12.92
2023-09-23T02:25:09.009Z,12.91
2023-09-23T02:26:09.056Z,12.91
2023-09-23T02:27:09.031Z,12.88
2023-09-23T02:28:08.974Z,12.87
2023-09-23T02:29:09.015Z,12.87
2023-09-23T02:30:08.954Z,12.85
2023-09-23T02:31:09.020Z,12.85
2023-09-23T02:32:08.960Z,12.84
2023-09-23T02:33:08.957Z,12.85
2023-09-23T02:34:08.940Z,12.84
2023-09-23T02:35:08.948Z,12.81
2023-09-23T02:36:08.885Z,12.80
2023-09-23T02:37:08.883Z,12.80
2023-09-23T02:38:08.882Z,12.80
2023-09-23T02:39:08.875Z,12.77
2023-09-23T02:40:08.857Z,12.77
2023-09-23T02:41:08.940Z,12.77
2023-09-23T02:42:08.825Z,12.76
2023-09-23T02:43:08.827Z,12.73
2023-09-23T02:44:08.866Z,12.71
2023-09-23T02:45:08.819Z,12.73
2023-09-23T02:46:08.833Z,12.70
2023-09-23T02:47:08.819Z,12.70
2023-09-23T02:48:08.894Z,12.69
2023-09-23T02:49:08.764Z,12.67
2023-09-23T02:50:08.782Z,12.67
2023-09-23T02:51:08.738Z,12.66
2023-09-23T02:52:08.733Z,12.63
2023-09-23T02:53:08.746Z,12.62
2023-09-23T02:54:08.700Z,12.61
2023-09-23T02:55:08.711Z,12.61
2023-09-23T02:56:08.749Z,12.61
2023-09-23T02:57:08.707Z,12.61
2023-09-23T02:58:08.650Z,12.59
2023-09-23T02:59:08.691Z,12.59
2023-09-23T03:00:08.625Z,12.58
2023-09-23T03:01:08.630Z,12.56
2023-09-23T03:02:08.748Z,12.56
2023-09-23T03:03:08.733Z,12.56
2023-09-23T03:04:08.685Z,12.55
2023-09-23T03:05:08.743Z,12.54
2023-09-23T03:06:08.617Z,12.55
2023-09-23T03:07:08.559Z,12.52
2023-09-23T03:08:08.713Z,12.52
2023-09-23T03:09:08.563Z,12.54
2023-09-23T03:10:08.518Z,12.52
2023-09-23T03:11:08.593Z,12.52
2023-09-23T03:12:08.516Z,12.51
2023-09-23T03:13:08.805Z,12.49
2023-09-23T03:14:08.527Z,12.49
2023-09-23T03:15:08.506Z,12.49
2023-09-23T03:16:08.485Z,12.49
2023-09-23T03:17:08.518Z,12.48
2023-09-23T03:18:08.527Z,12.46
2023-09-23T03:19:08.458Z,12.44
2023-09-23T03:20:08.470Z,12.44
2023-09-23T03:21:08.410Z,12.46
2023-09-23T03:22:08.399Z,12.44
2023-09-23T03:23:08.432Z,12.46
2023-09-23T03:24:08.378Z,12.44
2023-09-23T03:25:08.380Z,12.44
2023-09-23T03:26:08.384Z,12.44
2023-09-23T03:27:08.376Z,12.44
2023-09-23T03:28:08.338Z,12.43
2023-09-23T03:29:08.344Z,12.43
2023-09-23T03:30:08.304Z,12.41
2023-09-23T03:31:08.302Z,12.40
2023-09-23T03:32:08.325Z,12.40
2023-09-23T03:33:08.376Z,12.37
2023-09-23T03:34:08.267Z,12.34
2023-09-23T03:35:08.313Z,12.34
2023-09-23T03:36:08.241Z,12.33
2023-09-23T03:37:10.751Z,12.33
2023-09-23T03:38:08.251Z,12.33
2023-09-23T03:39:08.213Z,12.33
2023-09-23T03:40:08.192Z,12.31
2023-09-23T03:41:08.203Z,12.31
2023-09-23T03:42:08.173Z,12.30
2023-09-23T03:43:08.172Z,12.31
2023-09-23T03:44:08.170Z,12.29
2023-09-23T03:45:08.160Z,12.30
2023-09-23T03:46:08.189Z,12.29
2023-09-23T03:47:08.184Z,12.26
2023-09-23T03:48:08.112Z,12.23
2023-09-23T03:49:08.103Z,12.23
2023-09-23T03:50:08.128Z,12.22
2023-09-23T03:51:08.085Z,12.19
2023-09-23T03:52:08.073Z,12.18
2023-09-23T03:53:08.101Z,12.16
2023-09-23T03:54:08.058Z,12.15
2023-09-23T03:55:08.034Z,12.16
2023-09-23T03:56:08.050Z,12.13
2023-09-23T03:57:08.016Z,12.15
2023-09-23T03:58:08.017Z,12.15
2023-09-23T03:59:08.024Z,12.15
2023-09-23T04:00:08.007Z,12.13
2023-09-23T04:01:08.000Z,12.16
2023-09-23T04:02:07.991Z,12.16
2023-09-23T04:03:08.005Z,12.15
2023-09-23T04:04:08.025Z,12.16
2023-09-23T04:05:08.003Z,12.18
2023-09-23T04:06:07.909Z,12.16
2023-09-23T04:07:07.903Z,12.18
2023-09-23T04:08:07.915Z,12.18
2023-09-23T04:09:07.883Z,12.21
2023-09-23T04:10:07.879Z,12.19
2023-09-23T04:11:07.923Z,12.18
2023-09-23T04:12:07.915Z,12.19
2023-09-23T04:13:07.837Z,12.21
2023-09-23T04:14:07.859Z,12.18
2023-09-23T04:15:07.822Z,12.19
2023-09-23T04:16:07.865Z,12.19
2023-09-23T04:17:07.865Z,12.18
2023-09-23T04:18:07.836Z,12.18
2023-09-23T04:19:07.792Z,12.16
2023-09-23T04:20:07.832Z,12.16
2023-09-23T04:21:07.784Z,12.16
2023-09-23T04:22:07.752Z,12.16
2023-09-23T04:23:07.850Z,12.15
2023-09-23T04:24:07.731Z,12.18
2023-09-23T04:25:07.732Z,12.16
2023-09-23T04:26:07.721Z,12.15
2023-09-23T04:27:07.708Z,12.13
2023-09-23T04:28:07.708Z,12.13
2023-09-23T04:29:07.718Z,12.12
2023-09-23T04:30:07.688Z,12.12
2023-09-23T04:31:07.663Z,12.12
2023-09-23T04:32:07.797Z,12.12
2023-09-23T04:33:07.760Z,12.12
2023-09-23T04:34:07.633Z,12.11
2023-09-23T04:35:07.645Z,12.11
2023-09-23T04:36:07.606Z,12.11
2023-09-23T04:37:07.645Z,12.08
2023-09-23T04:38:07.622Z,12.08
2023-09-23T04:39:07.580Z,12.11
2023-09-23T04:40:07.637Z,12.12
2023-09-23T04:41:07.591Z,12.11
2023-09-23T04:42:07.542Z,12.11
2023-09-23T04:43:07.529Z,12.11
2023-09-23T04:44:07.551Z,12.12
2023-09-23T04:45:07.534Z,12.11
2023-09-23T04:46:07.582Z,12.12
2023-09-23T04:47:07.528Z,12.11
2023-09-23T04:48:07.521Z,12.11
2023-09-23T04:49:07.495Z,12.13
2023-09-23T04:50:07.509Z,12.11
2023-09-23T04:51:07.445Z,12.12
2023-09-23T04:52:07.433Z,12.13
2023-09-23T04:53:07.447Z,12.12
2023-09-23T04:54:07.416Z,12.11
2023-09-23T04:55:07.407Z,12.12
2023-09-23T04:56:07.446Z,12.11
2023-09-23T04:57:07.389Z,12.11
2023-09-23T04:58:07.426Z,12.12
2023-09-23T04:59:07.369Z,12.11
2023-09-23T05:00:07.338Z,12.08
2023-09-23T05:01:07.328Z,12.11
2023-09-23T05:02:07.341Z,12.08
2023-09-23T05:03:07.391Z,12.12
2023-09-23T05:04:07.345Z,12.12
2023-09-23T05:05:07.369Z,12.11
2023-09-23T05:06:07.314Z,12.08
2023-09-23T05:07:07.276Z,12.07
2023-09-23T05:08:07.322Z,12.07
2023-09-23T05:09:07.264Z,12.05
2023-09-23T05:10:07.244Z,12.07
2023-09-23T05:11:07.272Z,12.05
2023-09-23T05:12:07.227Z,12.05
2023-09-23T05:13:07.210Z,12.04
2023-09-23T05:14:07.219Z,12.03
2023-09-23T05:15:07.196Z,12.01
2023-09-23T05:16:07.260Z,12.03
2023-09-23T05:17:07.259Z,12.03
2023-09-23T05:18:07.213Z,12.01
2023-09-23T05:19:07.219Z,12.00
2023-09-23T05:20:07.167Z,12.00
2023-09-23T05:21:07.134Z,11.98
2023-09-23T05:22:07.103Z,11.98
2023-09-23T05:23:07.194Z,12.00
2023-09-23T05:24:07.113Z,12.00
2023-09-23T05:25:07.077Z,12.00
2023-09-23T05:26:07.080Z,12.00
2023-09-23T05:27:07.057Z,12.01
2023-09-23T05:28:09.182Z,12.03
2023-09-23T05:29:07.056Z,12.01
2023-09-23T05:30:07.038Z,12.03
2023-09-23T05:31:07.072Z,12.04
2023-09-23T05:32:07.069Z,12.03
2023-09-23T05:33:07.078Z,12.04
2023-09-23T05:34:07.012Z,12.04
2023-09-23T05:35:07.045Z,12.07
2023-09-23T05:36:06.976Z,12.05
2023-09-23T05:37:06.976Z,12.07
2023-09-23T05:38:06.976Z,12.08
2023-09-23T05:39:06.973Z,12.11
2023-09-23T05:40:06.931Z,12.13
2023-09-23T05:41:06.952Z,12.15
2023-09-23T05:42:06.902Z,12.15
2023-09-23T05:43:06.903Z,12.15
2023-09-23T05:44:06.923Z,12.16
2023-09-23T05:45:06.898Z,12.18
2023-09-23T05:46:06.881Z,12.21
2023-09-23T05:47:06.995Z,12.18
2023-09-23T05:48:07.192Z,12.19
2023-09-23T05:49:06.832Z,12.21
2023-09-23T05:50:06.867Z,12.23
2023-09-23T05:51:06.863Z,12.23
2023-09-23T05:52:06.796Z,12.25
2023-09-23T05:53:06.855Z,12.26
2023-09-23T05:54:06.783Z,12.29
2023-09-23T05:55:06.779Z,12.30
2023-09-23T05:56:06.797Z,12.31
2023-09-23T05:57:06.748Z,12.34
2023-09-23T05:58:06.725Z,12.36
2023-09-23T05:59:06.777Z,12.37
2023-09-23T06:00:06.759Z,12.38
2023-09-23T06:01:06.756Z,12.40
2023-09-23T06:02:06.692Z,12.38
2023-09-23T06:03:06.768Z,12.41
2023-09-23T06:04:06.705Z,12.43
2023-09-23T06:05:06.697Z,12.44
2023-09-23T06:06:06.642Z,12.48
2023-09-23T06:07:06.631Z,12.49
2023-09-23T06:08:06.690Z,12.51
2023-09-23T06:09:06.610Z,12.54
2023-09-23T06:10:06.607Z,12.55
2023-09-23T06:11:06.687Z,12.58
2023-09-23T06:12:06.585Z,12.62
2023-09-23T06:13:06.573Z,12.63
2023-09-23T06:14:06.597Z,12.67
2023-09-23T06:15:06.665Z,12.71
2023-09-23T06:16:06.572Z,12.73
2023-09-23T06:17:06.600Z,12.73
2023-09-23T06:18:06.658Z,12.77
2023-09-23T06:19:08.142Z,12.80
2023-09-23T06:20:06.565Z,12.81
2023-09-23T06:21:06.730Z,12.84
2023-09-23T06:22:06.477Z,12.87
2023-09-23T06:23:06.532Z,12.89
2023-09-23T06:24:06.452Z,12.89
2023-09-23T06:25:06.472Z,12.91
2023-09-23T06:26:06.520Z,12.94
2023-09-23T06:27:06.413Z,12.96
2023-09-23T06:28:06.400Z,12.98
2023-09-23T06:29:06.435Z,12.99
2023-09-23T06:30:06.447Z,13.01
2023-09-23T06:31:06.403Z,13.04
2023-09-23T06:32:06.457Z,13.06
2023-09-23T06:33:06.368Z,13.07
2023-09-23T06:34:06.352Z,13.09
2023-09-23T06:35:06.391Z,13.12
2023-09-23T06:36:06.341Z,13.13
2023-09-23T06:37:06.315Z,13.14
2023-09-23T06:38:06.322Z,13.14
2023-09-23T06:39:06.308Z,13.16
2023-09-23T06:40:06.304Z,13.17
2023-09-23T06:41:06.332Z,13.17
2023-09-23T06:42:06.279Z,13.17
2023-09-23T06:43:06.276Z,13.21
2023-09-23T06:44:06.288Z,13.19
2023-09-23T06:45:06.243Z,13.21
2023-09-23T06:46:06.256Z,13.22
2023-09-23T06:47:06.256Z,13.24
2023-09-23T06:48:06.254Z,13.27
2023-09-23T06:49:06.194Z,13.28
2023-09-23T06:50:06.193Z,13.28
2023-09-23T06:51:06.174Z,13.31
2023-09-23T06:52:06.149Z,13.32
2023-09-23T06:53:06.156Z,13.35
2023-09-23T06:54:06.146Z,13.36
2023-09-23T06:55:06.132Z,13.39
2023-09-23T06:56:06.147Z,13.43
2023-09-23T06:57:06.091Z,13.46
2023-09-23T06:58:06.090Z,13.50
2023-09-23T06:59:06.176Z,13.53
2023-09-23T07:00:06.081Z,13.57
2023-09-23T07:01:06.062Z,13.59
2023-09-23T07:02:06.104Z,13.62
2023-09-23T07:03:06.269Z,13.65
2023-09-23T07:04:06.174Z,13.66
2023-09-23T07:05:06.068Z,13.68
2023-09-23T07:06:06.007Z,13.72
2023-09-23T07:07:06.034Z,13.75
2023-09-23T07:08:05.994Z,13.79
2023-09-23T07:09:05.980Z,13.84
2023-09-23T07:10:05.995Z,13.88
2023-09-23T07:11:05.986Z,13.90
2023-09-23T07:12:05.982Z,13.94
2023-09-23T07:13:05.934Z,14.01
2023-09-23T07:14:05.979Z,14.01
2023-09-23T07:15:05.921Z,14.09
2023-09-23T07:16:05.934Z,14.11
2023-09-23T07:17:05.933Z,14.16
2023-09-23T07:18:05.936Z,14.19
2023-09-23T07:19:05.881Z,14.24
2023-09-23T07:20:05.904Z,14.27
2023-09-23T07:21:05.849Z,14.29
2023-09-23T07:22:05.838Z,14.34
2023-09-23T07:23:05.852Z,14.38
2023-09-23T07:24:08.815Z,14.39
2023-09-23T07:25:06.810Z,14.42
2023-09-23T07:26:05.809Z,14.45
2023-09-23T07:27:05.816Z,14.48
2023-09-23T07:28:05.801Z,14.53
2023-09-23T07:29:05.808Z,14.56
2023-09-23T07:30:05.765Z,14.59
2023-09-23T07:31:05.795Z,14.61
2023-09-23T07:32:05.809Z,14.63
2023-09-23T07:33:05.746Z,14.66
2023-09-23T07:34:05.723Z,14.69
2023-09-23T07:35:05.748Z,14.72
2023-09-23T07:36:05.697Z,14.75
2023-09-23T07:37:05.675Z,14.79
2023-09-23T07:38:05.695Z,14.82
2023-09-23T07:39:05.675Z,14.85
2023-09-23T07:40:05.659Z,14.87
2023-09-23T07:41:05.645Z,14.91
2023-09-23T07:42:05.646Z,14.93
2023-09-23T07:43:05.634Z,14.97
2023-09-23T07:44:05.653Z,15.01
2023-09-23T07:45:05.581Z,15.04
2023-09-23T07:46:05.593Z,15.07
2023-09-23T07:47:05.610Z,15.11
2023-09-23T07:48:05.608Z,15.13
2023-09-23T07:49:05.775Z,15.12
2023-09-23T07:50:05.581Z,15.15
2023-09-23T07:51:05.532Z,15.16
2023-09-23T07:52:05.507Z,15.16
2023-09-23T07:53:05.493Z,15.19
2023-09-23T07:54:05.487Z,15.22
2023-09-23T07:55:05.466Z,15.23
2023-09-23T07:56:05.496Z,15.23
2023-09-23T07:57:05.454Z,15.23
2023-09-23T07:58:05.439Z,15.25
2023-09-23T07:59:05.454Z,15.25
2023-09-23T08:00:05.447Z,15.28
2023-09-23T08:01:05.434Z,15.30
2023-09-23T08:02:05.540Z,15.30
2023-09-23T08:03:05.468Z,15.31
2023-09-23T08:04:05.382Z,15.33
2023-09-23T08:05:05.498Z,15.33
2023-09-23T08:06:05.386Z,15.34
2023-09-23T08:07:05.348Z,15.34
2023-09-23T08:08:05.389Z,15.37
2023-09-23T08:09:05.325Z,15.37
2023-09-23T08:10:05.334Z,15.41
2023-09-23T08:11:05.321Z,15.43
2023-09-23T08:12:05.304Z,15.43
2023-09-23T08:13:05.305Z,15.44
2023-09-23T08:14:05.328Z,15.44
2023-09-23T08:15:05.276Z,15.48
2023-09-23T08:16:05.281Z,15.49
2023-09-23T08:17:05.364Z,15.49
2023-09-23T08:18:05.314Z,15.46
2023-09-23T08:19:05.246Z,15.49
2023-09-23T08:20:05.242Z,15.51
2023-09-23T08:21:05.199Z,15.51
2023-09-23T08:22:05.197Z,15.51
2023-09-23T08:23:05.229Z,15.52
2023-09-23T08:24:05.187Z,15.53
2023-09-23T08:25:05.152Z,15.55
2023-09-23T08:26:05.251Z,15.56
2023-09-23T08:27:05.162Z,15.58
2023-09-23T08:28:05.127Z,15.58
2023-09-23T08:29:05.205Z,15.59
2023-09-23T08:30:05.117Z,15.59
2023-09-23T08:31:05.087Z,15.59
2023-09-23T08:32:05.181Z,15.58
2023-09-23T08:33:05.173Z,15.59
2023-09-23T08:34:05.080Z,15.59
2023-09-23T08:35:05.115Z,15.64
2023-09-23T08:36:05.056Z,15.60
2023-09-23T08:37:05.029Z,15.66
2023-09-23T08:38:05.050Z,15.66
2023-09-23T08:39:05.001Z,15.64
2023-09-23T08:40:05.021Z,15.67
2023-09-23T08:41:04.990Z,15.68
2023-09-23T08:42:05.002Z,15.70
2023-09-23T08:43:05.054Z,15.70
2023-09-23T08:44:05.005Z,15.70
2023-09-23T08:45:04.953Z,15.70
2023-09-23T08:46:05.008Z,15.73
2023-09-23T08:47:04.936Z,15.68
2023-09-23T08:48:05.026Z,15.70
2023-09-23T08:49:04.903Z,15.68
2023-09-23T08:50:04.927Z,15.67
2023-09-23T08:51:04.866Z,15.68
2023-09-23T08:52:04.874Z,15.68
2023-09-23T08:53:04.872Z,15.71
2023-09-23T08:54:06.474Z,15.70
2023-09-23T08:55:04.821Z,15.71
2023-09-23T08:56:04.869Z,15.73
2023-09-23T08:57:04.893Z,15.74
2023-09-23T08:58:04.809Z,15.74
2023-09-23T08:59:04.838Z,15.77
2023-09-23T09:00:04.801Z,15.78
2023-09-23T09:01:04.782Z,15.81
2023-09-23T09:02:04.850Z,15.84
2023-09-23T09:03:04.839Z,15.81
2023-09-23T09:04:04.738Z,15.85
2023-09-23T09:05:04.818Z,15.84
2023-09-23T09:06:04.818Z,15.86
2023-09-23T09:07:04.699Z,15.86
2023-09-23T09:08:04.728Z,15.86
2023-09-23T09:09:04.675Z,15.85
2023-09-23T09:10:04.665Z,15.85
2023-09-23T09:11:04.714Z,15.84
2023-09-23T09:12:04.663Z,15.84
2023-09-23T09:13:04.626Z,15.85
2023-09-23T09:14:04.720Z,15.86
2023-09-23T09:15:04.640Z,15.88
2023-09-23T09:16:04.640Z,15.91
2023-09-23T09:17:04.639Z,15.91
2023-09-23T09:18:04.622Z,15.93
2023-09-23T09:19:04.570Z,15.93
2023-09-23T09:20:04.589Z,15.95
2023-09-23T09:21:04.559Z,15.96
2023-09-23T09:22:04.547Z,15.99
2023-09-23T09:23:04.553Z,16.04
2023-09-23T09:24:04.588Z,16.04
2023-09-23T09:25:04.521Z,16.07
2023-09-23T09:26:04.542Z,16.08
2023-09-23T09:27:04.515Z,16.08
2023-09-23T09:28:04.530Z,16.08
2023-09-23T09:29:04.731Z,16.11
2023-09-23T09:30:13.615Z,16.13
2023-09-23T09:31:05.469Z,16.14
2023-09-23T09:32:04.465Z,16.16
2023-09-23T09:33:04.463Z,16.17
2023-09-23T09:34:04.427Z,16.22
2023-09-23T09:35:04.463Z,16.25
2023-09-23T09:36:04.400Z,16.23
2023-09-23T09:37:04.383Z,16.25
2023-09-23T09:38:16.898Z,16.26
2023-09-23T09:39:05.431Z,16.27
2023-09-23T09:40:04.350Z,16.29
2023-09-23T09:41:04.347Z,16.29
2023-09-23T09:42:04.333Z,16.32
2023-09-23T09:43:04.331Z,16.33
2023-09-23T09:44:04.401Z,16.33
2023-09-23T09:45:04.298Z,16.37
2023-09-23T09:46:04.271Z,16.41
2023-09-23T09:47:04.463Z,16.44
2023-09-23T09:48:04.319Z,16.47
2023-09-23T09:49:04.275Z,16.50
2023-09-23T09:50:04.297Z,16.54
2023-09-23T09:51:04.221Z,16.57
2023-09-23T09:52:04.211Z,16.60
2023-09-23T09:53:04.242Z,16.62
2023-09-23T09:54:04.208Z,16.65
2023-09-23T09:55:04.207Z,16.67
2023-09-23T09:56:04.200Z,16.70
2023-09-23T09:57:04.167Z,16.73
2023-09-23T09:58:04.306Z,16.77
2023-09-23T09:59:04.199Z,16.80
2023-09-23T10:00:04.142Z,16.84
2023-09-23T10:01:04.161Z,16.87
2023-09-23T10:02:04.165Z,16.87
2023-09-23T10:03:04.221Z,16.90
2023-09-23T10:04:04.127Z,16.91
2023-09-23T10:05:04.112Z,16.95
2023-09-23T10:06:04.076Z,16.99
2023-09-23T10:07:04.084Z,17.05
2023-09-23T10:08:04.095Z,17.07
2023-09-23T10:09:04.048Z,17.15
2023-09-23T10:10:04.020Z,17.22
2023-09-23T10:11:04.125Z,17.30
2023-09-23T10:12:04.013Z,17.40
2023-09-23T10:13:03.987Z,17.49
2023-09-23T10:14:04.037Z,17.58
2023-09-23T10:15:03.970Z,17.66
2023-09-23T10:16:03.978Z,17.79
2023-09-23T10:17:04.045Z,17.87
2023-09-23T10:18:04.025Z,17.94
2023-09-23T10:19:04.064Z,18.02
2023-09-23T10:20:03.975Z,18.11
2023-09-23T10:21:03.937Z,18.20
2023-09-23T10:22:03.903Z,18.31
2023-09-23T10:23:03.929Z,18.41
2023-09-23T10:24:03.883Z,18.50
2023-09-23T10:25:03.881Z,18.57
2023-09-23T10:26:03.890Z,18.65
2023-09-23T10:27:03.853Z,18.71
2023-09-23T10:28:03.843Z,18.72
2023-09-23T10:29:03.857Z,18.74
2023-09-23T10:30:03.820Z,18.74
2023-09-23T10:31:04.161Z,18.76
2023-09-23T10:32:03.837Z,18.79
2023-09-23T10:33:03.808Z,18.75
2023-09-23T10:34:03.777Z,18.72
2023-09-23T10:35:03.804Z,18.71
2023-09-23T10:36:03.825Z,18.69
2023-09-23T10:37:03.766Z,18.68
2023-09-23T10:38:03.759Z,18.68
2023-09-23T10:39:03.736Z,18.66
2023-09-23T10:40:03.713Z,18.68
2023-09-23T10:41:03.764Z,18.72
2023-09-23T10:42:03.694Z,18.72
2023-09-23T10:43:03.694Z,18.71
2023-09-23T10:44:03.746Z,18.71
2023-09-23T10:45:03.656Z,18.69
2023-09-23T10:46:03.657Z,18.66
2023-09-23T10:47:03.652Z,18.66
2023-09-23T10:48:03.671Z,18.64
2023-09-23T10:49:03.610Z,18.62
2023-09-23T10:50:03.664Z,18.60
2023-09-23T10:51:03.602Z,18.62
2023-09-23T10:52:03.620Z,18.62
2023-09-23T10:53:03.659Z,18.65
2023-09-23T10:54:03.553Z,18.68
2023-09-23T10:55:03.527Z,18.74
2023-09-23T10:56:03.607Z,18.79
2023-09-23T10:57:03.782Z,18.86
2023-09-23T10:58:03.524Z,18.94
2023-09-23T10:59:03.517Z,18.96
2023-09-23T11:00:03.493Z,18.96
2023-09-23T11:01:03.497Z,18.93
2023-09-23T11:02:03.522Z,18.89
2023-09-23T11:03:03.581Z,18.84
2023-09-23T11:04:03.504Z,18.83
2023-09-23T11:05:03.487Z,18.83
2023-09-23T11:06:03.428Z,18.79
2023-09-23T11:07:03.440Z,18.79
2023-09-23T11:08:03.470Z,18.82
2023-09-23T11:09:03.409Z,18.84
2023-09-23T11:10:03.379Z,18.86
2023-09-23T11:11:03.403Z,18.87
2023-09-23T11:12:03.368Z,18.91
2023-09-23T11:13:03.370Z,18.96
2023-09-23T11:14:03.377Z,19.01
2023-09-23T11:15:03.351Z,19.02
2023-09-23T11:16:03.359Z,19.01
2023-09-23T11:17:03.343Z,19.01
2023-09-23T11:18:03.344Z,19.05
2023-09-23T11:19:03.306Z,19.07
2023-09-23T11:20:03.323Z,19.12
2023-09-23T11:21:03.345Z,19.15
2023-09-23T11:22:03.279Z,19.21
2023-09-23T11:23:03.458Z,19.25
2023-09-23T11:24:03.238Z,19.31
2023-09-23T11:25:03.240Z,19.38
2023-09-23T11:26:03.274Z,19.39
2023-09-23T11:27:03.221Z,19.43
2023-09-23T11:28:03.285Z,19.49
2023-09-23T11:29:03.210Z,19.55
2023-09-23T11:30:03.182Z,19.58
2023-09-23T11:31:03.156Z,19.62
2023-09-23T11:32:03.239Z,19.70
2023-09-23T11:33:03.210Z,19.76
2023-09-23T11:34:03.143Z,19.86
2023-09-23T11:35:03.148Z,19.97
2023-09-23T11:36:03.098Z,20.07
2023-09-23T11:37:03.099Z,20.22
2023-09-23T11:38:03.165Z,20.23
2023-09-23T11:39:03.068Z,20.27
2023-09-23T11:40:03.089Z,20.46
2023-09-23T11:41:03.079Z,20.68
2023-09-23T11:42:03.033Z,20.87
2023-09-23T11:43:03.023Z,21.03
2023-09-23T11:44:03.042Z,21.16
2023-09-23T11:45:03.019Z,21.33
2023-09-23T11:46:03.074Z,21.42
2023-09-23T11:47:03.025Z,21.48
2023-09-23T11:48:02.993Z,21.43
2023-09-23T11:49:02.979Z,21.38
2023-09-23T11:50:02.998Z,21.34
2023-09-23T11:51:02.954Z,21.24
2023-09-23T11:52:02.942Z,21.16
2023-09-23T11:53:02.956Z,21.22
2023-09-23T11:54:02.926Z,21.21
2023-09-23T11:55:02.945Z,21.19
2023-09-23T11:56:03.002Z,21.18
2023-09-23T11:57:02.886Z,21.19
2023-09-23T11:58:02.877Z,21.22
2023-09-23T11:59:08.388Z,21.63
2023-09-23T12:00:03.868Z,22.12
2023-09-23T12:01:02.902Z,22.51
2023-09-23T12:02:02.850Z,23.04
2023-09-23T12:03:02.939Z,23.50
2023-09-23T12:04:02.987Z,24.06
2023-09-23T12:05:03.037Z,23.96
2023-09-23T12:06:02.864Z,24.26
2023-09-23T12:07:02.788Z,25.08
2023-09-23T12:08:02.863Z,25.44
2023-09-23T12:09:02.782Z,25.94
2023-09-23T12:10:02.801Z,26.96
2023-09-23T12:11:02.769Z,27.40
2023-09-23T12:12:02.809Z,28.01
2023-09-23T12:13:02.725Z,29.08
2023-09-23T12:14:02.741Z,28.82
2023-09-23T12:15:02.706Z,28.87
2023-09-23T12:16:02.792Z,29.79
2023-09-23T12:17:02.762Z,30.56
2023-09-23T12:18:02.724Z,30.23
2023-09-23T12:19:02.668Z,29.36
2023-09-23T12:20:02.730Z,28.28
2023-09-23T12:21:02.651Z,27.63
2023-09-23T12:22:02.630Z,27.12
2023-09-23T12:23:02.750Z,26.54
2023-09-23T12:24:02.596Z,26.00
2023-09-23T12:25:02.631Z,25.61
2023-09-23T12:26:02.644Z,25.57
2023-09-23T12:27:02.580Z,25.16
2023-09-23T12:28:02.610Z,24.84
2023-09-23T12:29:02.586Z,24.61
2023-09-23T12:30:02.578Z,24.42
2023-09-23T12:31:02.542Z,24.26
2023-09-23T12:32:02.531Z,24.08
2023-09-23T12:33:02.561Z,23.93
2023-09-23T12:34:02.517Z,23.78
2023-09-23T12:35:02.536Z,23.59
2023-09-23T12:36:02.466Z,23.35
2023-09-23T12:37:02.480Z,23.12
2023-09-23T12:38:02.464Z,22.97
2023-09-23T12:39:02.441Z,22.88
2023-09-23T12:40:02.417Z,22.79
2023-09-23T12:41:02.441Z,22.74
2023-09-23T12:42:02.424Z,22.69
2023-09-23T12:43:02.387Z,22.64
2023-09-23T12:44:02.400Z,22.59
2023-09-23T12:45:06.125Z,22.54
2023-09-23T12:46:02.397Z,22.45
2023-09-23T12:47:02.426Z,22.44
2023-09-23T12:48:02.464Z,22.38
2023-09-23T12:49:02.392Z,22.29
2023-09-23T12:50:02.391Z,22.23
2023-09-23T12:51:02.326Z,22.19
2023-09-23T12:52:02.304Z,22.14